Time;durP1;ratioP1;P1;durP2;ratioP2;P2;SDS_P1;SDS_P2;PMS_P1;PMS_P2;Temp;Humidity;BMP_temperature;BMP_pressure;BME280_temperature;BME280_humidity;BME280_pressure;Samples;Min_cycle;Max_cycle;Signal;HPM_P1;HPM_P2
2022/07/25 00:00:44;;;;;;;2.20;1.42;;;;;;;36.68;30.41;100713.16;4899432;29;20333;-72
2022/07/25 00:03:15;;;;;;;3.97;1.58;;;;;;;36.76;30.06;100726.84;4900818;29;20095;-73
2022/07/25 00:05:44;;;;;;;2.20;1.30;;;;;;;36.75;29.57;100706.28;4904710;29;20069;-70
2022/07/25 00:08:14;;;;;;;2.92;2.20;;;;;;;36.84;29.49;100707.38;4906073;29;20083;-72
2022/07/25 00:10:43;;;;;;;3.03;1.50;;;;;;;36.97;30.06;100721.53;4889947;29;20070;-70
2022/07/25 00:13:12;;;;;;;2.53;2.28;;;;;;;37.00;30.72;100717.75;4900411;29;20048;-71
2022/07/25 00:15:42;;;;;;;1.80;1.50;;;;;;;37.03;30.63;100712.09;4894516;29;20060;-71
2022/07/25 00:18:11;;;;;;;1.80;1.42;;;;;;;37.01;30.34;100705.97;4904767;29;20108;-71
2022/07/25 00:20:39;;;;;;;2.13;1.63;;;;;;;37.03;30.75;100712.94;4908137;29;20128;-71
2022/07/25 00:23:08;;;;;;;6.85;1.67;;;;;;;36.94;30.50;100697.53;4907287;29;20230;-71
2022/07/25 00:25:39;;;;;;;3.08;1.45;;;;;;;36.97;28.61;100707.19;4906324;29;20091;-69
2022/07/25 00:28:14;;;;;;;3.50;1.50;;;;;;;36.88;28.73;100693.50;4904426;29;20105;-71
2022/07/25 00:30:43;;;;;;;2.38;1.38;;;;;;;36.83;31.72;100690.31;4899387;29;20060;-72
2022/07/25 00:33:15;;;;;;;3.35;1.38;;;;;;;36.92;30.83;100701.34;4907101;29;20052;-71
2022/07/25 00:35:47;;;;;;;2.22;1.40;;;;;;;36.82;31.64;100699.41;4902161;29;20056;-72
2022/07/25 00:38:19;;;;;;;5.25;1.40;;;;;;;36.85;30.79;100704.53;4902078;29;20048;-72
2022/07/25 00:40:57;;;;;;;4.57;1.38;;;;;;;36.88;30.54;100707.00;4898839;29;20056;-73
2022/07/25 00:43:25;;;;;;;2.78;1.52;;;;;;;36.93;28.98;100700.34;4902652;29;20060;-73
2022/07/25 00:45:54;;;;;;;1.80;1.30;;;;;;;36.89;28.67;100700.59;4909703;29;20480;-73
2022/07/25 00:48:23;;;;;;;2.22;1.30;;;;;;;36.74;27.89;100680.28;4909516;29;20048;-73
2022/07/25 00:50:52;;;;;;;1.65;1.40;;;;;;;36.75;29.30;100676.63;4899370;29;20100;-73
2022/07/25 00:53:21;;;;;;;2.03;1.63;;;;;;;36.80;27.71;100693.28;4898916;29;20048;-71
2022/07/25 00:56:00;;;;;;;2.72;1.33;;;;;;;36.80;29.87;100684.34;4901991;29;20053;-70
2022/07/25 00:58:30;;;;;;;3.33;1.10;;;;;;;36.69;29.53;100671.72;4901059;29;20049;-72
2022/07/25 01:01:02;;;;;;;1.80;1.15;;;;;;;36.63;28.32;100677.59;4904494;29;20104;-74
2022/07/25 01:03:31;;;;;;;5.50;1.63;;;;;;;36.53;29.69;100671.25;4907642;29;20044;-72
2022/07/25 01:06:03;;;;;;;2.10;1.30;;;;;;;36.53;28.98;100679.31;4903943;29;20052;-71
2022/07/25 01:08:35;;;;;;;3.03;1.48;;;;;;;36.40;28.15;100671.34;4900955;29;20064;-71
2022/07/25 01:11:06;;;;;;;2.47;1.20;;;;;;;36.33;27.14;100673.72;4907616;29;20052;-71
2022/07/25 01:13:38;;;;;;;7.28;1.92;;;;;;;36.26;29.06;100670.66;4908283;29;20057;-70
2022/07/25 01:16:07;;;;;;;3.50;1.25;;;;;;;36.21;27.96;100661.22;4903494;29;20061;-70
2022/07/25 01:18:37;;;;;;;2.00;1.40;;;;;;;36.14;28.85;100655.47;4902174;29;20347;-70
2022/07/25 01:21:08;;;;;;;1.50;1.30;;;;;;;36.06;28.93;100658.75;4906477;29;20049;-71
2022/07/25 01:23:36;;;;;;;;;;;;;;;36.15;28.30;100672.47;4907394;29;20052;-72
2022/07/25 01:26:05;;;;;;;2.55;1.27;;;;;;;36.02;28.62;100653.72;4907481;29;19987;-73
2022/07/25 01:28:58;;;;;;;2.40;1.23;;;;;;;36.08;28.68;100667.56;4912836;29;20048;-72
2022/07/25 01:31:28;;;;;;;1.77;1.67;;;;;;;36.05;28.13;100670.47;4904600;29;20051;-73
2022/07/25 01:33:57;;;;;;;2.15;1.27;;;;;;;35.91;27.53;100651.03;4909824;29;20053;-71
2022/07/25 01:36:29;;;;;;;2.53;1.25;;;;;;;35.92;29.55;100663.50;4908079;29;20333;-73
2022/07/25 01:38:58;;;;;;;5.50;1.30;;;;;;;35.85;28.54;100657.72;4908512;29;20045;-72
2022/07/25 01:41:27;;;;;;;4.22;1.42;;;;;;;35.72;28.81;100644.41;4908870;28;20100;-72
2022/07/25 01:43:56;;;;;;;2.25;1.67;;;;;;;35.75;28.75;100656.75;4898042;29;20049;-72
2022/07/25 01:46:25;;;;;;;1.17;1.00;;;;;;;35.65;29.50;100652.09;4905359;29;20059;-72
2022/07/25 01:48:54;;;;;;;1.30;1.20;;;;;;;35.56;29.91;100642.00;4910879;29;20063;-72
2022/07/25 01:51:23;;;;;;;2.05;1.33;;;;;;;35.53;29.88;100638.69;4908725;29;20059;-72
2022/07/25 01:53:54;;;;;;;2.47;1.45;;;;;;;35.38;29.58;100625.44;4917631;29;20082;-73
2022/07/25 01:56:23;;;;;;;5.40;1.30;;;;;;;35.39;28.47;100634.38;4907160;29;20057;-72
2022/07/25 01:58:54;;;;;;;1.63;1.30;;;;;;;35.28;29.40;100623.56;4905085;29;20057;-73
2022/07/25 02:01:23;;;;;;;1.45;1.10;;;;;;;35.36;29.12;100640.00;4902077;29;20104;-72
2022/07/25 02:03:52;;;;;;;2.88;1.30;;;;;;;35.26;30.68;100641.69;4909781;29;20045;-70
2022/07/25 02:06:23;;;;;;;1.60;1.27;;;;;;;35.13;30.07;100623.78;4906615;29;20080;-71
2022/07/25 02:08:53;;;;;;;;;;;;;;;35.21;30.37;100639.34;4903370;29;20064;-72
2022/07/25 02:11:22;;;;;;;1.60;1.38;;;;;;;35.16;29.81;100644.19;4901541;29;19947;-71
2022/07/25 02:13:51;;;;;;;1.85;1.20;;;;;;;35.05;28.72;100642.31;4906241;29;20279;-71
2022/07/25 02:16:20;;;;;;;2.35;1.17;;;;;;;34.97;29.25;100647.38;4897464;29;20117;-70
2022/07/25 02:18:49;;;;;;;1.48;1.10;;;;;;;34.87;29.07;100641.00;4907141;29;20060;-73
2022/07/25 02:21:18;;;;;;;1.65;1.25;;;;;;;34.83;29.18;100646.56;4897519;29;20057;-73
2022/07/25 02:23:47;;;;;;;3.05;1.20;;;;;;;34.74;30.11;100641.88;4897628;29;20341;-72
2022/07/25 02:26:17;;;;;;;3.30;1.52;;;;;;;34.74;29.41;100652.63;4901224;29;20061;-72
2022/07/25 02:28:46;;;;;;;2.67;1.35;;;;;;;34.70;31.07;100644.91;4901013;29;20048;-71
2022/07/25 02:31:15;;;;;;;1.40;1.30;;;;;;;34.67;29.89;100651.38;4902497;29;20092;-71
2022/07/25 02:33:44;;;;;;;2.28;1.40;;;;;;;34.55;32.12;100650.41;4902191;29;20300;-73
2022/07/25 02:36:13;;;;;;;3.40;1.30;;;;;;;34.53;31.49;100648.81;4896849;29;20140;-73
2022/07/25 02:38:44;;;;;;;3.08;1.20;;;;;;;34.38;31.77;100635.53;4905554;29;20051;-73
2022/07/25 02:41:13;;;;;;;2.70;1.40;;;;;;;34.25;30.34;100634.72;4906347;28;20065;-73
2022/07/25 02:47:52;;;;;;;1.25;1.10;;;;;;;34.21;32.09;100654.69;4849346;29;20406;-74
2022/07/25 02:50:22;;;;;;;1.73;1.42;;;;;;;33.97;31.79;100636.66;4905361;29;20052;-72
2022/07/25 02:52:51;;;;;;;1.95;1.10;;;;;;;33.95;30.62;100648.47;4905356;29;20096;-73
2022/07/25 02:55:22;;;;;;;2.10;1.20;;;;;;;33.94;32.08;100666.38;4905620;29;20059;-72
2022/07/25 02:57:54;;;;;;;1.58;1.33;;;;;;;33.82;31.75;100663.69;4904418;29;20048;-71
2022/07/25 03:00:21;;;;;;;;;;;;;;;33.76;32.52;100664.97;4904960;29;20107;-72
2022/07/25 03:02:52;;;;;;;1.67;1.23;;;;;;;33.50;32.55;100638.09;4903650;29;19919;-72
2022/07/25 03:05:21;;;;;;;2.85;1.27;;;;;;;33.43;33.24;100646.66;4904447;29;20642;-71
2022/07/25 03:07:49;;;;;;;1.73;1.38;;;;;;;33.37;33.31;100653.28;4903967;29;20064;-75
2022/07/25 03:10:19;;;;;;;1.77;1.30;;;;;;;33.26;32.64;100654.03;4905005;29;20394;-72
2022/07/25 03:12:47;;;;;;;1.95;1.40;;;;;;;33.21;33.71;100657.97;4911167;29;20041;-74
2022/07/25 03:15:16;;;;;;;2.00;1.40;;;;;;;32.97;33.89;100645.22;4898334;29;20072;-73
2022/07/25 03:17:45;;;;;;;1.30;1.10;;;;;;;32.92;33.36;100658.94;4911651;29;20052;-71
2022/07/25 03:20:19;;;;;;;2.17;1.40;;;;;;;32.82;32.78;100654.25;4903538;29;20278;-72
2022/07/25 03:22:50;;;;;;;2.58;1.73;;;;;;;32.58;33.68;100641.50;4901309;29;20353;-73
2022/07/25 03:25:18;;;;;;;1.88;1.45;;;;;;;32.52;34.41;100655.28;4904263;29;20244;-73
2022/07/25 03:27:47;;;;;;;3.38;1.55;;;;;;;32.44;33.96;100668.28;4903210;29;20052;-73
2022/07/25 03:30:16;;;;;;;2.08;1.40;;;;;;;32.28;33.97;100669.25;4903889;29;20075;-73
2022/07/25 03:32:45;;;;;;;2.40;1.30;;;;;;;32.21;35.14;100672.38;4897725;29;20112;-73
2022/07/25 03:35:15;;;;;;;5.05;1.50;;;;;;;31.99;34.56;100660.34;4901963;29;20050;-73
2022/07/25 03:37:44;;;;;;;3.25;1.77;;;;;;;31.77;34.19;100647.38;4899995;29;20108;-73
2022/07/25 03:40:26;;;;;;;1.75;1.45;;;;;;;31.79;33.32;100666.88;4583616;29;9381606;-73
2022/07/25 03:42:57;;;;;;;2.33;1.55;;;;;;;31.56;33.83;100654.03;4898139;29;20387;-73
2022/07/25 03:45:26;;;;;;;;;;;;;;;31.56;34.40;100673.63;4902284;29;20055;-72
2022/07/25 03:47:54;;;;;;;2.15;1.45;;;;;;;31.39;33.33;100669.25;4902211;29;19928;-74
2022/07/25 03:50:25;;;;;;;2.30;1.63;;;;;;;31.32;34.53;100673.25;4905489;29;20074;-73
2022/07/25 03:52:53;;;;;;;2.22;1.58;;;;;;;31.14;34.59;100653.78;4901661;29;20117;-73
2022/07/25 03:55:22;;;;;;;1.63;1.42;;;;;;;31.01;34.65;100656.31;4902411;29;20074;-72
2022/07/25 03:57:51;;;;;;;2.45;1.40;;;;;;;30.84;34.61;100645.72;4893801;29;20071;-74
2022/07/25 04:00:20;;;;;;;3.50;1.45;;;;;;;30.88;35.20;100677.53;4897849;29;20083;-73
2022/07/25 04:02:48;;;;;;;2.03;1.40;;;;;;;30.75;35.30;100668.44;4894696;29;20057;-73
2022/07/25 04:05:17;;;;;;;1.63;1.27;;;;;;;30.61;35.50;100671.91;4895887;29;20051;-73
2022/07/25 04:07:47;;;;;;;2.63;1.40;;;;;;;30.55;35.91;100677.56;4904016;29;20059;-73
2022/07/25 04:10:16;;;;;;;1.63;1.20;;;;;;;30.39;36.23;100671.34;4901595;29;20119;-73
2022/07/25 04:12:45;;;;;;;2.25;1.73;;;;;;;30.33;36.02;100677.00;4904620;29;20044;-74
2022/07/25 04:15:14;;;;;;;2.78;1.45;;;;;;;30.18;36.79;100671.53;4896206;29;20082;-72
2022/07/25 04:17:42;;;;;;;1.92;1.35;;;;;;;30.04;37.75;100672.28;4904128;29;20299;-72
2022/07/25 04:20:12;;;;;;;2.78;1.50;;;;;;;29.89;36.91;100662.41;4905631;29;20115;-73
2022/07/25 04:22:40;;;;;;;2.80;1.58;;;;;;;29.85;37.15;100677.72;4900928;29;20121;-72
2022/07/25 04:25:13;;;;;;;2.65;1.70;;;;;;;29.77;37.59;100685.25;4904960;29;20052;-72
2022/07/25 04:27:43;;;;;;;2.28;1.75;;;;;;;29.63;37.05;100682.41;4904932;29;20052;-74
2022/07/25 04:30:13;;;;;;;2.53;1.73;;;;;;;29.38;37.98;100650.81;4904175;29;20072;-73
2022/07/25 04:32:42;;;;;;;4.32;1.50;;;;;;;29.38;38.28;100672.13;4898708;29;20225;-73
2022/07/25 04:35:11;;;;;;;3.42;1.92;;;;;;;29.21;37.61;100657.84;4900187;29;20103;-72
2022/07/25 04:37:39;;;;;;;1.67;1.38;;;;;;;29.06;37.56;100647.06;4899585;29;20056;-72
2022/07/25 04:40:11;;;;;;;1.85;1.40;;;;;;;29.15;38.87;100686.59;4901429;29;20060;-72
2022/07/25 04:42:40;;;;;;;2.30;1.60;;;;;;;29.04;38.54;100682.59;4896676;29;20053;-71
2022/07/25 04:45:10;;;;;;;4.25;1.65;;;;;;;28.92;38.54;100680.53;4897593;29;20535;-71
2022/07/25 04:47:38;;;;;;;2.95;1.40;;;;;;;28.70;38.65;100653.22;4897378;29;20068;-72
2022/07/25 04:50:08;;;;;;;1.67;1.35;;;;;;;28.78;39.83;100693.66;4899439;29;20045;-73
2022/07/25 04:52:37;;;;;;;2.28;1.42;;;;;;;28.63;38.31;100673.09;4904488;29;20341;-71
2022/07/25 04:55:07;;;;;;;1.85;1.40;;;;;;;28.60;38.95;100684.75;4903568;29;20048;-73
2022/07/25 04:57:37;;;;;;;1.88;1.50;;;;;;;28.54;38.96;100693.91;4905764;29;20048;-72
2022/07/25 05:00:09;;;;;;;2.92;1.40;;;;;;;28.39;39.95;100690.09;4904020;29;20079;-73
2022/07/25 05:02:38;;;;;;;5.28;1.73;;;;;;;28.17;39.46;100666.25;4903350;29;20044;-74
2022/07/25 05:05:08;;;;;;;2.28;1.40;;;;;;;28.27;41.50;100698.66;4904628;29;20045;-71
2022/07/25 05:07:37;;;;;;;1.67;1.35;;;;;;;28.06;39.65;100673.88;4908145;29;20427;-73
2022/07/25 05:10:07;;;;;;;4.00;1.60;;;;;;;28.02;38.34;100682.91;4911870;29;20049;-73
2022/07/25 05:12:37;;;;;;;1.85;1.50;;;;;;;27.92;39.97;100669.16;4902664;29;20048;-73
2022/07/25 05:15:08;;;;;;;1.98;1.50;;;;;;;27.95;39.22;100692.09;4910147;29;20049;-73
2022/07/25 05:17:37;;;;;;;2.95;1.50;;;;;;;27.69;39.04;100656.81;4900160;29;20063;-72
2022/07/25 05:20:07;;;;;;;1.73;1.33;;;;;;;27.71;38.95;100670.06;4897936;29;20057;-71
2022/07/25 05:22:35;;;;;;;2.75;1.50;;;;;;;27.76;38.56;100684.91;4913270;29;20059;-72
2022/07/25 05:25:08;;;;;;;1.90;1.50;;;;;;;27.60;39.24;100664.34;4908701;29;20097;-72
2022/07/25 05:27:39;;;;;;;5.15;1.48;;;;;;;27.65;39.08;100683.59;4907024;29;20064;-72
2022/07/25 05:30:09;;;;;;;2.55;1.38;;;;;;;27.49;38.97;100664.81;4903166;29;20065;-72
2022/07/25 05:32:38;;;;;;;5.22;1.50;;;;;;;27.44;39.12;100664.13;4901287;29;20081;-72
2022/07/25 05:35:09;;;;;;;1.75;1.38;;;;;;;27.36;39.80;100667.09;4906838;29;20049;-72
2022/07/25 05:37:38;;;;;;;2.85;1.52;;;;;;;27.30;39.52;100670.88;4908029;29;20064;-71
2022/07/25 05:40:08;;;;;;;3.92;1.45;;;;;;;27.24;38.91;100665.84;4907299;28;20072;-72
2022/07/25 05:42:39;;;;;;;4.07;1.42;;;;;;;27.26;38.64;100682.56;4905351;29;20459;-72
2022/07/25 05:45:08;;;;;;;2.22;1.65;;;;;;;27.17;40.11;100680.25;4918640;29;20059;-72
2022/07/25 05:47:37;;;;;;;3.20;1.42;;;;;;;27.10;39.58;100677.00;4907735;29;20056;-72
2022/07/25 05:50:07;;;;;;;2.22;1.45;;;;;;;26.91;39.55;100666.22;4906481;29;20114;-72
2022/07/25 05:52:36;;;;;;;1.70;1.38;;;;;;;26.87;38.67;100669.94;4912759;29;20048;-71
2022/07/25 05:55:08;;;;;;;1.98;1.30;;;;;;;26.79;38.69;100671.16;4909121;29;20134;-71
2022/07/25 05:58:10;;;;;;;4.20;1.60;;;;;;;26.74;39.17;100681.97;4904249;29;20060;-72
2022/07/25 06:00:40;;;;;;;;;;;;;;;26.77;39.44;100687.16;4913819;29;20048;-72
2022/07/25 06:03:27;;;;;;;4.30;1.75;;;;;;;26.65;38.98;100683.19;4907182;29;19920;-72
2022/07/25 06:06:07;;;;;;;2.70;1.42;;;;;;;26.60;38.60;100679.00;4895916;29;20056;-72
2022/07/25 06:08:56;;;;;;;2.00;1.60;;;;;;;26.45;38.98;100670.63;4906207;29;20069;-72
2022/07/25 06:11:30;;;;;;;2.00;1.40;;;;;;;26.46;38.70;100684.78;4889817;29;20048;-72
2022/07/25 06:14:11;;;;;;;2.90;1.52;;;;;;;26.40;39.51;100696.47;4903960;29;20067;-72
2022/07/25 06:16:43;;;;;;;2.38;1.48;;;;;;;26.31;39.77;100691.50;4905552;29;20085;-71
2022/07/25 06:22:22;;;;;;;2.30;1.52;;;;;;;26.12;40.39;100675.41;4894476;29;20049;-71
2022/07/25 06:24:55;;;;;;;2.78;1.30;;;;;;;26.13;40.03;100693.91;4905753;29;20044;-72
2022/07/25 06:27:35;;;;;;;3.45;1.25;;;;;;;25.90;39.54;100654.09;4905294;29;20060;-72
2022/07/25 06:30:20;;;;;;;2.22;1.45;;;;;;;25.97;41.57;100690.06;4906468;29;20096;-71
2022/07/25 06:32:52;;;;;;;2.72;1.52;;;;;;;25.87;40.12;100686.03;4900036;29;20067;-72
2022/07/25 06:35:21;;;;;;;5.38;1.40;;;;;;;25.76;41.34;100680.22;4905909;29;20373;-72
2022/07/25 06:37:51;;;;;;;2.80;1.40;;;;;;;25.68;41.63;100680.47;4901230;29;20056;-71
2022/07/25 06:40:30;;;;;;;1.92;1.67;;;;;;;25.61;42.00;100681.59;4898896;28;20088;-70
2022/07/25 06:43:01;;;;;;;2.72;1.58;;;;;;;25.61;41.60;100695.72;4900401;29;20054;-72
2022/07/25 06:45:37;;;;;;;3.90;1.57;;;;;;;25.56;42.93;100686.19;4906659;29;20064;-72
2022/07/25 06:48:09;;;;;;;2.60;1.45;;;;;;;25.47;41.40;100688.22;4905112;29;20361;-72
2022/07/25 06:50:40;;;;;;;1.80;1.40;;;;;;;25.37;41.91;100683.28;4907950;29;20056;-71
2022/07/25 06:53:15;;;;;;;3.42;1.75;;;;;;;25.17;41.48;100668.88;4906732;29;20054;-71
2022/07/25 06:55:49;;;;;;;3.67;1.77;;;;;;;25.07;42.69;100668.31;4903523;29;20122;-70
2022/07/25 06:58:20;;;;;;;3.67;1.50;;;;;;;25.00;42.67;100672.06;4902471;29;20064;-71
2022/07/25 07:00:53;;;;;;;3.17;1.20;;;;;;;24.89;42.47;100666.25;4904655;29;20056;-71
2022/07/25 07:03:24;;;;;;;3.10;1.45;;;;;;;24.97;42.45;100688.06;4907633;29;20055;-71
2022/07/25 07:05:59;;;;;;;2.90;1.60;;;;;;;24.78;43.16;100655.97;4899571;29;20068;-71
2022/07/25 07:08:31;;;;;;;3.13;1.83;;;;;;;24.94;45.90;100681.97;4903366;29;20218;-70
2022/07/25 07:11:04;;;;;;;1.85;1.55;;;;;;;24.83;43.96;100672.59;4905693;29;20054;-71
2022/07/25 07:13:34;;;;;;;2.63;1.35;;;;;;;24.78;44.04;100674.50;4903033;29;20061;-70
2022/07/25 07:16:07;;;;;;;2.10;1.30;;;;;;;24.73;45.42;100679.06;4902653;29;20036;-71
2022/07/25 07:18:41;;;;;;;2.60;1.48;;;;;;;24.64;45.76;100684.66;4914224;29;20040;-71
2022/07/25 07:21:10;;;;;;;2.45;1.20;;;;;;;24.42;46.29;100660.59;4913802;29;20044;-71
2022/07/25 07:23:54;;;;;;;3.15;1.52;;;;;;;24.42;45.81;100658.81;4912042;29;20059;-71
2022/07/25 07:26:25;;;;;;;5.10;1.45;;;;;;;24.40;45.63;100665.06;4903912;29;20259;-71
2022/07/25 07:28:54;;;;;;;3.20;1.50;;;;;;;24.38;45.11;100673.03;4911781;29;20084;-71
2022/07/25 07:31:25;;;;;;;2.28;1.55;;;;;;;24.14;47.43;100640.22;4905540;29;20059;-72
2022/07/25 07:34:03;;;;;;;1.80;1.40;;;;;;;24.17;45.74;100657.78;4897982;29;20353;-72
2022/07/25 07:36:31;;;;;;;2.58;1.50;;;;;;;24.21;44.84;100662.06;4908989;29;20133;-71
2022/07/25 07:39:14;;;;;;;3.10;1.55;;;;;;;24.06;44.62;100639.59;4898690;29;20058;-71
2022/07/25 07:41:43;;;;;;;2.40;1.48;;;;;;;23.97;44.88;100631.91;4908010;29;20057;-71
2022/07/25 07:44:18;;;;;;;2.35;1.45;;;;;;;24.05;42.94;100643.13;4907389;29;20051;-71
2022/07/25 07:46:50;;;;;;;1.50;1.20;;;;;;;24.06;42.93;100644.00;4904671;29;20096;-71
2022/07/25 07:49:28;;;;;;;3.05;1.58;;;;;;;24.00;42.98;100637.09;4905742;29;20309;-72
2022/07/25 07:51:58;;;;;;;2.78;1.30;;;;;;;24.12;43.19;100657.03;4899097;29;20060;-73
2022/07/25 07:57:16;;;;;;;2.17;1.38;;;;;;;24.00;43.71;100651.19;4902705;29;20063;-71
2022/07/25 07:59:48;;;;;;;2.10;1.50;;;;;;;24.00;42.88;100642.38;4907678;29;20132;-70
2022/07/25 08:02:29;;;;;;;5.07;1.50;;;;;;;24.04;42.22;100658.13;4901677;29;20096;-70
2022/07/25 08:04:59;;;;;;;2.40;1.58;;;;;;;23.97;41.89;100646.00;4903716;29;20104;-71
2022/07/25 08:07:32;;;;;;;3.25;1.42;;;;;;;24.02;41.63;100653.78;4906740;29;20052;-71
2022/07/25 08:10:07;;;;;;;2.60;1.40;;;;;;;24.02;42.95;100648.50;4906218;29;20052;-70
2022/07/25 08:12:41;;;;;;;1.80;1.38;;;;;;;23.92;44.39;100639.97;4902630;29;20052;-70
2022/07/25 08:15:21;;;;;;;2.83;1.30;;;;;;;23.99;41.82;100641.53;4902296;29;20040;-71
2022/07/25 08:17:55;;;;;;;3.15;1.42;;;;;;;24.06;41.44;100655.44;4911563;29;20048;-71
2022/07/25 08:20:28;;;;;;;2.47;1.50;;;;;;;24.12;42.09;100659.69;4902898;29;20049;-71
2022/07/25 08:22:57;;;;;;;3.05;1.35;;;;;;;24.11;41.86;100648.25;4900094;29;20393;-71
2022/07/25 08:25:31;;;;;;;1.60;1.38;;;;;;;24.08;42.28;100640.41;4902365;29;20345;-71
2022/07/25 08:28:05;;;;;;;2.00;1.75;;;;;;;24.04;41.79;100636.13;4900807;29;20060;-70
2022/07/25 08:30:42;;;;;;;3.42;1.48;;;;;;;24.01;43.65;100631.78;4903281;29;20048;-72
2022/07/25 08:33:14;;;;;;;4.53;1.45;;;;;;;23.99;43.38;100632.75;4902615;29;20052;-71
2022/07/25 08:35:50;;;;;;;3.95;1.58;;;;;;;23.97;45.11;100632.78;4896886;29;20052;-72
2022/07/25 08:38:19;;;;;;;1.75;1.20;;;;;;;24.01;44.47;100638.84;4898652;29;20076;-72
2022/07/25 08:40:57;;;;;;;2.60;1.40;;;;;;;23.89;43.85;100637.44;4899759;28;20095;-72
2022/07/25 08:43:28;;;;;;;1.60;1.17;;;;;;;23.92;43.66;100644.41;4907137;29;20241;-72
2022/07/25 08:46:00;;;;;;;2.65;1.55;;;;;;;23.83;43.50;100638.44;4895942;29;20057;-71
2022/07/25 08:48:30;;;;;;;3.13;1.50;;;;;;;23.68;43.39;100625.59;4905924;29;20048;-72
2022/07/25 08:51:00;;;;;;;3.83;1.50;;;;;;;23.59;43.50;100618.81;4897524;29;20140;-72
2022/07/25 08:53:38;;;;;;;2.65;1.35;;;;;;;23.51;43.29;100622.56;4903423;29;20088;-72
2022/07/25 08:56:10;;;;;;;2.70;1.50;;;;;;;23.48;43.00;100626.16;4899162;29;20044;-73
2022/07/25 08:58:42;;;;;;;;;;;;;;;23.58;42.69;100647.91;4900121;29;20045;-72
2022/07/25 09:01:11;;;;;;;4.25;1.70;;;;;;;23.45;42.66;100631.50;4898259;29;19951;-71
2022/07/25 09:03:57;;;;;;;3.72;1.70;;;;;;;23.49;42.81;100643.72;4895950;29;20049;-72
2022/07/25 09:06:37;;;;;;;4.95;1.60;;;;;;;23.34;42.48;100626.50;4901718;29;20045;-72
2022/07/25 09:09:08;;;;;;;3.05;1.40;;;;;;;23.33;42.51;100637.97;4908048;29;20513;-71
2022/07/25 09:14:24;;;;;;;2.58;1.70;;;;;;;23.17;42.95;100619.00;4907172;29;20048;-72
2022/07/25 09:16:54;;;;;;;3.78;1.50;;;;;;;23.32;44.46;100651.19;4907738;29;20116;-72
2022/07/25 09:19:35;;;;;;;2.97;1.67;;;;;;;23.27;43.82;100650.44;4906702;29;20060;-71
2022/07/25 09:22:09;;;;;;;2.42;1.60;;;;;;;23.30;43.35;100650.38;4908023;29;20071;-72
2022/07/25 09:25:05;;;;;;;3.03;1.83;;;;;;;23.29;42.65;100657.41;4906418;29;20068;-71
2022/07/25 09:27:35;;;;;;;3.58;1.80;;;;;;;23.23;42.60;100640.84;4906521;29;20060;-71
2022/07/25 09:30:14;;;;;;;3.47;1.70;;;;;;;23.14;44.38;100634.91;4915590;29;20068;-72
2022/07/25 09:32:43;;;;;;;3.47;1.33;;;;;;;23.23;45.77;100647.03;4909266;29;20068;-71
2022/07/25 09:35:16;;;;;;;4.20;1.45;;;;;;;23.13;42.93;100643.72;4902819;29;20041;-71
2022/07/25 09:37:46;;;;;;;3.17;1.80;;;;;;;23.20;43.56;100655.00;4907047;29;20056;-71
2022/07/25 09:40:18;;;;;;;3.58;1.60;;;;;;;23.03;42.80;100623.75;4909383;28;20052;-72
2022/07/25 09:42:54;;;;;;;2.85;1.55;;;;;;;23.15;42.67;100652.47;4904409;29;20051;-71
2022/07/25 09:45:22;;;;;;;2.55;1.67;;;;;;;23.12;42.67;100649.91;4904884;29;20351;-71
2022/07/25 09:47:56;;;;;;;2.13;1.60;;;;;;;23.01;43.27;100641.38;4898823;29;20059;-71
2022/07/25 09:50:30;;;;;;;2.25;1.70;;;;;;;23.03;44.04;100649.28;4904155;29;20395;-72
2022/07/25 09:53:02;;;;;;;2.17;1.40;;;;;;;23.01;44.08;100651.94;4900912;29;20055;-71
2022/07/25 09:55:42;;;;;;;3.10;1.80;;;;;;;22.96;44.02;100645.88;4902351;29;20053;-72
2022/07/25 09:58:14;;;;;;;2.75;1.35;;;;;;;22.72;43.66;100616.53;4903951;29;20101;-73
2022/07/25 10:00:43;;;;;;;;;;;;;;;22.85;43.20;100639.97;4907604;29;20052;-72
2022/07/25 10:03:19;;;;;;;3.47;1.40;;;;;;;22.78;43.75;100634.84;4900659;29;19975;-74
2022/07/25 10:06:21;;;;;;;2.25;1.33;;;;;;;22.84;42.53;100640.88;4907410;29;20057;-73
2022/07/25 10:08:54;;;;;;;1.77;1.48;;;;;;;22.83;43.19;100642.66;4907074;29;20060;-71
2022/07/25 10:11:30;;;;;;;2.13;1.52;;;;;;;22.64;42.57;100612.34;4913309;29;20064;-70
2022/07/25 10:14:14;;;;;;;2.92;1.75;;;;;;;22.71;41.55;100622.69;4914079;29;20082;-72
2022/07/25 10:16:54;;;;;;;4.55;2.22;;;;;;;22.80;41.46;100645.38;4900220;29;20115;-71
2022/07/25 10:19:49;;;;;;;4.38;1.63;;;;;;;22.63;42.12;100608.84;4904496;29;20052;-71
2022/07/25 10:22:20;;;;;;;1.73;1.38;;;;;;;22.56;42.43;100604.56;4904274;29;20088;-71
2022/07/25 10:24:51;;;;;;;1.65;1.30;;;;;;;22.78;43.99;100648.03;4906618;29;20056;-70
2022/07/25 10:27:29;;;;;;;2.20;1.42;;;;;;;22.60;43.05;100619.44;4903198;29;20080;-71
2022/07/25 10:30:03;;;;;;;2.58;1.33;;;;;;;22.75;42.60;100647.25;4904674;29;20052;-71
2022/07/25 10:32:44;;;;;;;;;;;;;;;;;;;;;
2022/07/25 10:35:18;;;;;;;2.23;1.30;;;;;;;22.59;42.56;100623.84;4896265;29;20079;-73
2022/07/25 10:37:55;;;;;;;2.08;1.30;;;;;;;22.60;43.07;100629.97;4899755;29;20064;-70
2022/07/25 10:40:37;;;;;;;3.47;1.55;;;;;;;22.50;43.06;100618.78;4901579;28;20342;-72
2022/07/25 10:43:15;;;;;;;2.65;1.50;;;;;;;22.57;43.04;100632.69;4904879;29;20325;-72
2022/07/25 10:45:52;;;;;;;3.03;1.55;;;;;;;22.55;43.16;100639.78;4898224;29;20110;-71
2022/07/25 10:48:25;;;;;;;2.28;1.60;;;;;;;22.58;43.56;100653.72;4898363;29;20079;-71
2022/07/25 10:51:06;;;;;;;2.45;1.67;;;;;;;22.46;42.90;100637.34;4900358;29;20105;-72
2022/07/25 10:53:49;;;;;;;2.10;1.48;;;;;;;22.54;42.86;100652.09;4898373;29;20047;-72
2022/07/25 10:56:39;;;;;;;2.55;1.63;;;;;;;22.47;43.50;100639.06;4899942;29;20061;-72
2022/07/25 10:59:11;;;;;;;1.77;1.48;;;;;;;22.50;42.35;100649.56;4901791;29;20096;-72
2022/07/25 11:04:26;;;;;;;2.45;1.63;;;;;;;22.50;43.07;100644.28;4900822;29;20044;-72
2022/07/25 11:06:55;;;;;;;2.25;1.40;;;;;;;22.51;42.73;100646.88;4896068;29;20474;-73
2022/07/25 11:09:35;;;;;;;2.42;1.40;;;;;;;22.48;41.77;100646.06;4903566;29;20048;-72
2022/07/25 11:12:03;;;;;;;2.78;1.40;;;;;;;22.40;41.86;100634.81;4905180;29;20062;-72
2022/07/25 11:14:35;;;;;;;2.50;1.45;;;;;;;22.52;41.73;100653.03;4906197;29;20060;-72
2022/07/25 11:17:18;;;;;;;2.88;1.40;;;;;;;22.52;42.30;100647.75;4904341;29;20123;-72
2022/07/25 11:22:51;;;;;;;1.92;1.33;;;;;;;22.51;41.72;100651.28;4914039;29;20049;-72
2022/07/25 11:25:29;;;;;;;3.20;1.42;;;;;;;22.31;41.31;100618.31;4909865;29;20064;-73
2022/07/25 11:30:42;;;;;;;2.72;1.60;;;;;;;22.47;41.57;100639.94;4894404;29;20083;-71
2022/07/25 11:33:25;;;;;;;2.00;1.25;;;;;;;22.52;41.47;100642.47;4905339;29;20044;-72
2022/07/25 11:35:58;;;;;;;2.35;1.30;;;;;;;22.35;41.15;100619.97;4904050;29;20082;-72
2022/07/25 11:38:48;;;;;;;1.80;1.48;;;;;;;22.50;41.87;100641.66;4901900;29;20367;-72
2022/07/25 11:41:38;;;;;;;2.10;1.30;;;;;;;22.46;41.00;100626.78;4908915;28;20120;-72
2022/07/25 11:44:33;;;;;;;4.57;1.42;;;;;;;22.42;40.94;100625.09;4898440;29;20040;-72
2022/07/25 11:47:06;;;;;;;2.45;1.30;;;;;;;22.43;41.00;100624.22;4904351;29;20116;-72
2022/07/25 11:49:46;;;;;;;4.18;1.60;;;;;;;22.45;40.56;100630.31;4897890;29;20393;-72
2022/07/25 11:52:28;;;;;;;1.73;1.40;;;;;;;22.35;40.94;100616.47;4900263;29;20044;-71
2022/07/25 11:54:57;;;;;;;;;;;;;;;22.49;41.14;100642.53;4904656;29;20052;-71
2022/07/25 11:57:29;;;;;;;1.60;1.33;;;;;;;22.38;41.22;100622.56;4903251;29;20274;-71
2022/07/25 12:00:02;;;;;;;2.92;1.50;;;;;;;22.31;41.36;100613.03;4909436;29;20052;-72
2022/07/25 12:02:48;;;;;;;2.25;1.50;;;;;;;22.30;41.06;100613.91;4902601;29;20049;-72
2022/07/25 12:05:35;;;;;;;3.33;1.40;;;;;;;22.38;42.29;100625.19;4904110;29;20098;-73
2022/07/25 12:08:16;;;;;;;2.05;1.30;;;;;;;22.33;41.96;100620.91;4896218;29;20096;-72
2022/07/25 12:10:50;;;;;;;3.03;1.35;;;;;;;22.26;41.62;100611.38;4902308;29;20735;-72
2022/07/25 12:13:35;;;;;;;2.97;1.52;;;;;;;22.36;42.48;100626.97;4898513;29;20067;-73
2022/07/25 12:16:03;;;;;;;2.50;1.40;;;;;;;22.32;43.33;100627.94;4894605;29;20112;-72